sensor_id;sensor_type;location;lat;lon;timestamp;temperature;humidity
41838;DHT22;27511;52.042;5.178;2023-07-13T00:02:08;22.20;99.90
41838;DHT22;27511;52.042;5.178;2023-07-13T00:04:34;22.00;99.90
41838;DHT22;27511;52.042;5.178;2023-07-13T00:07:00;22.10;99.90
41838;DHT22;27511;52.042;5.178;2023-07-13T00:09:25;22.10;99.90
41838;DHT22;27511;52.042;5.178;2023-07-13T00:11:51;22.00;99.90
41838;DHT22;27511;52.042;5.178;2023-07-13T00:14:17;22.00;99.90
41838;DHT22;27511;52.042;5.178;2023-07-13T00:16:43;22.00;99.90
41838;DHT22;27511;52.042;5.178;2023-07-13T00:19:09;22.10;99.90
41838;DHT22;27511;52.042;5.178;2023-07-13T00:21:35;22.00;99.90
41838;DHT22;27511;52.042;5.178;2023-07-13T00:24:01;22.00;99.90
41838;DHT22;27511;52.042;5.178;2023-07-13T00:26:27;22.00;99.90
41838;DHT22;27511;52.042;5.178;2023-07-13T00:28:52;22.00;99.90
41838;DHT22;27511;52.042;5.178;2023-07-13T00:31:18;21.80;99.90
41838;DHT22;27511;52.042;5.178;2023-07-13T00:33:43;21.80;99.90
41838;DHT22;27511;52.042;5.178;2023-07-13T00:36:09;21.70;99.90
41838;DHT22;27511;52.042;5.178;2023-07-13T00:38:35;21.80;99.90
41838;DHT22;27511;52.042;5.178;2023-07-13T00:41:01;21.80;99.90
41838;DHT22;27511;52.042;5.178;2023-07-13T00:43:29;21.70;99.90
41838;DHT22;27511;52.042;5.178;2023-07-13T00:48:27;21.70;99.90
41838;DHT22;27511;52.042;5.178;2023-07-13T00:50:55;21.60;99.90
41838;DHT22;27511;52.042;5.178;2023-07-13T00:53:22;21.70;99.90
41838;DHT22;27511;52.042;5.178;2023-07-13T00:55:49;21.70;99.90
41838;DHT22;27511;52.042;5.178;2023-07-13T00:58:15;21.60;99.90
41838;DHT22;27511;52.042;5.178;2023-07-13T01:00:41;21.50;99.90
41838;DHT22;27511;52.042;5.178;2023-07-13T01:03:07;21.60;99.90
41838;DHT22;27511;52.042;5.178;2023-07-13T01:05:33;21.60;99.90
41838;DHT22;27511;52.042;5.178;2023-07-13T01:07:59;21.50;99.90
41838;DHT22;27511;52.042;5.178;2023-07-13T01:10:26;21.40;99.90
41838;DHT22;27511;52.042;5.178;2023-07-13T01:12:52;21.50;99.90
41838;DHT22;27511;52.042;5.178;2023-07-13T01:18:03;21.40;99.90
41838;DHT22;27511;52.042;5.178;2023-07-13T01:20:29;21.50;99.90
41838;DHT22;27511;52.042;5.178;2023-07-13T01:22:54;21.40;99.90
41838;DHT22;27511;52.042;5.178;2023-07-13T01:25:20;21.50;99.90
41838;DHT22;27511;52.042;5.178;2023-07-13T01:27:45;21.50;99.90
41838;DHT22;27511;52.042;5.178;2023-07-13T01:30:11;21.60;99.90
41838;DHT22;27511;52.042;5.178;2023-07-13T01:32:36;21.60;99.90
41838;DHT22;27511;52.042;5.178;2023-07-13T01:35:02;21.50;99.90
41838;DHT22;27511;52.042;5.178;2023-07-13T01:37:28;21.50;99.90
41838;DHT22;27511;52.042;5.178;2023-07-13T01:40:02;21.40;99.90
41838;DHT22;27511;52.042;5.178;2023-07-13T01:42:28;21.40;99.90
41838;DHT22;27511;52.042;5.178;2023-07-13T01:44:54;21.40;99.90
41838;DHT22;27511;52.042;5.178;2023-07-13T01:47:19;21.30;99.90
41838;DHT22;27511;52.042;5.178;2023-07-13T01:49:45;21.30;99.90
41838;DHT22;27511;52.042;5.178;2023-07-13T01:52:12;21.20;99.90
41838;DHT22;27511;52.042;5.178;2023-07-13T01:54:38;21.30;99.90
41838;DHT22;27511;52.042;5.178;2023-07-13T01:57:03;21.30;99.90
41838;DHT22;27511;52.042;5.178;2023-07-13T01:59:29;21.40;99.90
41838;DHT22;27511;52.042;5.178;2023-07-13T02:01:54;21.30;99.90
41838;DHT22;27511;52.042;5.178;2023-07-13T02:04:20;21.30;99.90
41838;DHT22;27511;52.042;5.178;2023-07-13T02:06:45;21.30;99.90
41838;DHT22;27511;52.042;5.178;2023-07-13T02:09:11;21.20;99.90
41838;DHT22;27511;52.042;5.178;2023-07-13T02:11:36;21.10;99.90
41838;DHT22;27511;52.042;5.178;2023-07-13T02:14:02;21.10;99.90
41838;DHT22;27511;52.042;5.178;2023-07-13T02:16:29;21.10;99.90
41838;DHT22;27511;52.042;5.178;2023-07-13T02:18:54;21.10;99.90
41838;DHT22;27511;52.042;5.178;2023-07-13T02:21:21;21.10;99.90
41838;DHT22;27511;52.042;5.178;2023-07-13T02:23:47;21.20;99.90
41838;DHT22;27511;52.042;5.178;2023-07-13T02:26:12;21.20;99.90
41838;DHT22;27511;52.042;5.178;2023-07-13T02:28:38;21.20;99.90
41838;DHT22;27511;52.042;5.178;2023-07-13T02:31:05;21.10;99.90
41838;DHT22;27511;52.042;5.178;2023-07-13T02:33:30;21.10;99.90
41838;DHT22;27511;52.042;5.178;2023-07-13T02:35:56;21.10;99.90
41838;DHT22;27511;52.042;5.178;2023-07-13T02:38:21;21.10;99.90
41838;DHT22;27511;52.042;5.178;2023-07-13T02:40:47;21.00;99.90
41838;DHT22;27511;52.042;5.178;2023-07-13T02:43:13;20.90;99.90
41838;DHT22;27511;52.042;5.178;2023-07-13T02:45:38;20.80;99.90
41838;DHT22;27511;52.042;5.178;2023-07-13T02:48:04;20.90;99.90
41838;DHT22;27511;52.042;5.178;2023-07-13T02:50:30;20.80;99.90
41838;DHT22;27511;52.042;5.178;2023-07-13T02:52:55;20.70;99.90
41838;DHT22;27511;52.042;5.178;2023-07-13T02:55:21;20.70;99.90
41838;DHT22;27511;52.042;5.178;2023-07-13T02:57:46;20.70;99.90
41838;DHT22;27511;52.042;5.178;2023-07-13T03:00:12;20.70;99.90
41838;DHT22;27511;52.042;5.178;2023-07-13T03:02:37;20.70;99.90
41838;DHT22;27511;52.042;5.178;2023-07-13T03:05:04;20.80;99.90
41838;DHT22;27511;52.042;5.178;2023-07-13T03:07:30;20.70;99.90
41838;DHT22;27511;52.042;5.178;2023-07-13T03:09:56;20.80;99.90
41838;DHT22;27511;52.042;5.178;2023-07-13T03:12:22;20.70;99.90
41838;DHT22;27511;52.042;5.178;2023-07-13T03:14:48;20.60;99.90
41838;DHT22;27511;52.042;5.178;2023-07-13T03:17:13;20.70;99.90
41838;DHT22;27511;52.042;5.178;2023-07-13T03:19:39;20.70;99.90
41838;DHT22;27511;52.042;5.178;2023-07-13T03:22:05;20.60;99.90
41838;DHT22;27511;52.042;5.178;2023-07-13T03:24:32;20.70;99.90
41838;DHT22;27511;52.042;5.178;2023-07-13T03:26:57;20.60;99.90
41838;DHT22;27511;52.042;5.178;2023-07-13T03:29:23;20.70;99.90
41838;DHT22;27511;52.042;5.178;2023-07-13T03:31:48;20.60;99.90
41838;DHT22;27511;52.042;5.178;2023-07-13T03:34:14;20.60;99.90
41838;DHT22;27511;52.042;5.178;2023-07-13T03:36:39;20.70;99.90
41838;DHT22;27511;52.042;5.178;2023-07-13T03:39:05;20.70;99.90
41838;DHT22;27511;52.042;5.178;2023-07-13T03:41:33;20.70;99.90
41838;DHT22;27511;52.042;5.178;2023-07-13T03:43:59;20.80;99.90
41838;DHT22;27511;52.042;5.178;2023-07-13T03:46:24;20.80;99.90
41838;DHT22;27511;52.042;5.178;2023-07-13T03:48:50;20.70;99.90
41838;DHT22;27511;52.042;5.178;2023-07-13T03:51:16;20.50;99.90
41838;DHT22;27511;52.042;5.178;2023-07-13T03:53:43;20.50;99.90
41838;DHT22;27511;52.042;5.178;2023-07-13T03:56:08;20.50;99.90
41838;DHT22;27511;52.042;5.178;2023-07-13T03:58:35;20.50;99.90
41838;DHT22;27511;52.042;5.178;2023-07-13T04:01:01;20.70;99.90
41838;DHT22;27511;52.042;5.178;2023-07-13T04:03:28;20.60;99.90
41838;DHT22;27511;52.042;5.178;2023-07-13T04:05:55;20.60;99.90
41838;DHT22;27511;52.042;5.178;2023-07-13T04:08:28;20.60;99.90
41838;DHT22;27511;52.042;5.178;2023-07-13T04:10:54;20.50;99.90
41838;DHT22;27511;52.042;5.178;2023-07-13T04:13:19;20.50;99.90
41838;DHT22;27511;52.042;5.178;2023-07-13T04:15:45;20.50;99.90
41838;DHT22;27511;52.042;5.178;2023-07-13T04:18:10;20.50;99.90
41838;DHT22;27511;52.042;5.178;2023-07-13T04:20:36;20.50;99.90
41838;DHT22;27511;52.042;5.178;2023-07-13T04:23:01;20.50;99.90
41838;DHT22;27511;52.042;5.178;2023-07-13T04:25:27;20.50;99.90
41838;DHT22;27511;52.042;5.178;2023-07-13T04:27:53;20.50;99.90
41838;DHT22;27511;52.042;5.178;2023-07-13T04:30:19;20.50;99.90
41838;DHT22;27511;52.042;5.178;2023-07-13T04:32:44;20.50;99.90
41838;DHT22;27511;52.042;5.178;2023-07-13T04:35:10;20.50;99.90
41838;DHT22;27511;52.042;5.178;2023-07-13T04:37:35;20.50;99.90
41838;DHT22;27511;52.042;5.178;2023-07-13T04:40:01;20.40;99.90
41838;DHT22;27511;52.042;5.178;2023-07-13T04:42:28;20.40;99.90
41838;DHT22;27511;52.042;5.178;2023-07-13T04:44:53;20.30;99.90
41838;DHT22;27511;52.042;5.178;2023-07-13T04:47:19;20.40;99.90
41838;DHT22;27511;52.042;5.178;2023-07-13T04:49:44;20.40;99.90
41838;DHT22;27511;52.042;5.178;2023-07-13T04:52:10;20.50;99.90
41838;DHT22;27511;52.042;5.178;2023-07-13T04:54:36;20.40;99.90
41838;DHT22;27511;52.042;5.178;2023-07-13T04:57:03;20.50;99.90
41838;DHT22;27511;52.042;5.178;2023-07-13T04:59:29;20.50;99.90
41838;DHT22;27511;52.042;5.178;2023-07-13T05:01:55;20.50;99.90
41838;DHT22;27511;52.042;5.178;2023-07-13T05:04:20;20.60;99.90
41838;DHT22;27511;52.042;5.178;2023-07-13T05:06:46;20.70;99.90
41838;DHT22;27511;52.042;5.178;2023-07-13T05:09:11;20.70;99.90
41838;DHT22;27511;52.042;5.178;2023-07-13T05:11:38;20.70;99.90
41838;DHT22;27511;52.042;5.178;2023-07-13T05:14:03;20.70;99.90
41838;DHT22;27511;52.042;5.178;2023-07-13T05:16:29;20.60;99.90
41838;DHT22;27511;52.042;5.178;2023-07-13T05:18:54;20.70;99.90
41838;DHT22;27511;52.042;5.178;2023-07-13T05:21:20;20.70;99.90
41838;DHT22;27511;52.042;5.178;2023-07-13T05:23:47;20.80;99.90
41838;DHT22;27511;52.042;5.178;2023-07-13T05:26:12;20.70;99.90
41838;DHT22;27511;52.042;5.178;2023-07-13T05:28:38;20.80;99.90
41838;DHT22;27511;52.042;5.178;2023-07-13T05:31:04;20.70;99.90
41838;DHT22;27511;52.042;5.178;2023-07-13T05:33:31;20.80;99.90
41838;DHT22;27511;52.042;5.178;2023-07-13T05:35:57;20.80;99.90
41838;DHT22;27511;52.042;5.178;2023-07-13T05:38:22;20.80;99.90
41838;DHT22;27511;52.042;5.178;2023-07-13T05:40:49;20.70;99.90
41838;DHT22;27511;52.042;5.178;2023-07-13T05:43:15;20.80;99.90
41838;DHT22;27511;52.042;5.178;2023-07-13T05:45:41;20.90;99.90
41838;DHT22;27511;52.042;5.178;2023-07-13T05:48:06;20.90;99.90
41838;DHT22;27511;52.042;5.178;2023-07-13T05:50:32;20.80;99.90
41838;DHT22;27511;52.042;5.178;2023-07-13T05:52:58;20.80;99.90
41838;DHT22;27511;52.042;5.178;2023-07-13T05:55:23;20.90;99.90
41838;DHT22;27511;52.042;5.178;2023-07-13T05:57:49;20.90;99.90
41838;DHT22;27511;52.042;5.178;2023-07-13T06:00:14;20.90;99.90
41838;DHT22;27511;52.042;5.178;2023-07-13T06:02:40;20.80;99.90
41838;DHT22;27511;52.042;5.178;2023-07-13T06:05:06;21.00;99.90
41838;DHT22;27511;52.042;5.178;2023-07-13T06:07:31;21.00;99.90
41838;DHT22;27511;52.042;5.178;2023-07-13T06:09:57;21.00;99.90
41838;DHT22;27511;52.042;5.178;2023-07-13T06:12:24;21.00;99.90
41838;DHT22;27511;52.042;5.178;2023-07-13T06:14:50;21.10;99.90
41838;DHT22;27511;52.042;5.178;2023-07-13T06:17:15;21.10;99.90
41838;DHT22;27511;52.042;5.178;2023-07-13T06:19:41;21.10;99.90
41838;DHT22;27511;52.042;5.178;2023-07-13T06:22:06;21.10;99.90
41838;DHT22;27511;52.042;5.178;2023-07-13T06:24:32;21.10;99.90
41838;DHT22;27511;52.042;5.178;2023-07-13T06:26:58;21.20;99.90
41838;DHT22;27511;52.042;5.178;2023-07-13T06:29:23;21.20;99.90
41838;DHT22;27511;52.042;5.178;2023-07-13T06:31:49;21.20;99.90
41838;DHT22;27511;52.042;5.178;2023-07-13T06:34:14;21.10;99.90
41838;DHT22;27511;52.042;5.178;2023-07-13T06:36:40;21.10;99.90
41838;DHT22;27511;52.042;5.178;2023-07-13T06:39:06;21.20;99.90
41838;DHT22;27511;52.042;5.178;2023-07-13T06:41:31;21.20;99.90
41838;DHT22;27511;52.042;5.178;2023-07-13T06:43:58;21.20;99.90
41838;DHT22;27511;52.042;5.178;2023-07-13T06:46:23;21.30;99.90
41838;DHT22;27511;52.042;5.178;2023-07-13T06:48:49;21.40;99.90
41838;DHT22;27511;52.042;5.178;2023-07-13T06:51:15;21.40;99.90
41838;DHT22;27511;52.042;5.178;2023-07-13T06:53:40;21.40;99.90
41838;DHT22;27511;52.042;5.178;2023-07-13T06:56:07;21.50;99.90
41838;DHT22;27511;52.042;5.178;2023-07-13T06:58:33;21.60;99.90
41838;DHT22;27511;52.042;5.178;2023-07-13T07:00:59;21.60;99.90
41838;DHT22;27511;52.042;5.178;2023-07-13T07:03:24;21.60;99.90
41838;DHT22;27511;52.042;5.178;2023-07-13T07:05:50;21.70;99.90
41838;DHT22;27511;52.042;5.178;2023-07-13T07:08:15;21.80;99.90
41838;DHT22;27511;52.042;5.178;2023-07-13T07:10:41;21.70;99.90
41838;DHT22;27511;52.042;5.178;2023-07-13T07:13:07;21.80;99.90
41838;DHT22;27511;52.042;5.178;2023-07-13T07:15:33;21.80;99.90
41838;DHT22;27511;52.042;5.178;2023-07-13T07:17:59;21.80;99.90
41838;DHT22;27511;52.042;5.178;2023-07-13T07:20:24;21.90;99.90
41838;DHT22;27511;52.042;5.178;2023-07-13T07:22:52;21.80;99.90
41838;DHT22;27511;52.042;5.178;2023-07-13T07:25:19;21.70;99.90
41838;DHT22;27511;52.042;5.178;2023-07-13T07:27:47;21.80;99.90
41838;DHT22;27511;52.042;5.178;2023-07-13T07:30:13;21.90;99.90
41838;DHT22;27511;52.042;5.178;2023-07-13T07:32:38;21.90;99.90
41838;DHT22;27511;52.042;5.178;2023-07-13T07:35:04;21.90;99.90
41838;DHT22;27511;52.042;5.178;2023-07-13T07:37:30;22.00;99.90
41838;DHT22;27511;52.042;5.178;2023-07-13T07:39:55;22.00;99.90
41838;DHT22;27511;52.042;5.178;2023-07-13T07:42:21;21.90;99.90
41838;DHT22;27511;52.042;5.178;2023-07-13T07:44:46;22.00;99.90
41838;DHT22;27511;52.042;5.178;2023-07-13T07:47:12;22.00;99.90
41838;DHT22;27511;52.042;5.178;2023-07-13T07:49:38;21.90;99.90
41838;DHT22;27511;52.042;5.178;2023-07-13T07:52:03;21.90;99.90
41838;DHT22;27511;52.042;5.178;2023-07-13T07:54:29;21.90;99.90
41838;DHT22;27511;52.042;5.178;2023-07-13T07:56:54;22.00;99.90
41838;DHT22;27511;52.042;5.178;2023-07-13T07:59:20;21.90;99.90
41838;DHT22;27511;52.042;5.178;2023-07-13T08:01:45;21.90;99.90
41838;DHT22;27511;52.042;5.178;2023-07-13T08:04:13;21.90;99.90
41838;DHT22;27511;52.042;5.178;2023-07-13T08:06:38;21.80;99.90
41838;DHT22;27511;52.042;5.178;2023-07-13T08:09:04;21.90;99.90
41838;DHT22;27511;52.042;5.178;2023-07-13T08:11:29;22.00;99.90
41838;DHT22;27511;52.042;5.178;2023-07-13T08:13:55;22.00;99.90
41838;DHT22;27511;52.042;5.178;2023-07-13T08:16:21;22.00;99.90
41838;DHT22;27511;52.042;5.178;2023-07-13T08:18:47;22.00;99.90
41838;DHT22;27511;52.042;5.178;2023-07-13T08:21:12;21.90;99.90
41838;DHT22;27511;52.042;5.178;2023-07-13T08:23:38;22.00;99.90
41838;DHT22;27511;52.042;5.178;2023-07-13T08:26:04;22.00;99.90
41838;DHT22;27511;52.042;5.178;2023-07-13T08:28:29;22.00;99.90
41838;DHT22;27511;52.042;5.178;2023-07-13T08:31:00;22.00;99.90
41838;DHT22;27511;52.042;5.178;2023-07-13T08:33:25;21.90;99.90
41838;DHT22;27511;52.042;5.178;2023-07-13T08:35:51;21.90;99.90
41838;DHT22;27511;52.042;5.178;2023-07-13T08:38:17;21.80;99.90
41838;DHT22;27511;52.042;5.178;2023-07-13T08:40:43;21.70;99.90
41838;DHT22;27511;52.042;5.178;2023-07-13T08:43:13;21.70;99.90
41838;DHT22;27511;52.042;5.178;2023-07-13T08:45:47;21.70;99.90
41838;DHT22;27511;52.042;5.178;2023-07-13T08:48:27;21.80;99.90
41838;DHT22;27511;52.042;5.178;2023-07-13T08:53:18;21.90;99.90
41838;DHT22;27511;52.042;5.178;2023-07-13T08:55:44;22.00;99.90
41838;DHT22;27511;52.042;5.178;2023-07-13T08:58:14;21.80;99.90
41838;DHT22;27511;52.042;5.178;2023-07-13T09:01:06;21.80;99.90
41838;DHT22;27511;52.042;5.178;2023-07-13T09:03:43;21.80;99.90
41838;DHT22;27511;52.042;5.178;2023-07-13T09:06:12;21.80;99.90
41838;DHT22;27511;52.042;5.178;2023-07-13T09:08:44;21.90;99.90
41838;DHT22;27511;52.042;5.178;2023-07-13T09:13:59;22.00;99.90
41838;DHT22;27511;52.042;5.178;2023-07-13T09:16:26;22.00;99.90
41838;DHT22;27511;52.042;5.178;2023-07-13T09:18:52;22.20;99.90
41838;DHT22;27511;52.042;5.178;2023-07-13T09:21:32;22.30;99.90
41838;DHT22;27511;52.042;5.178;2023-07-13T09:24:01;22.20;99.90
41838;DHT22;27511;52.042;5.178;2023-07-13T09:26:27;22.20;99.90
41838;DHT22;27511;52.042;5.178;2023-07-13T09:28:55;21.90;99.90
41838;DHT22;27511;52.042;5.178;2023-07-13T09:31:28;21.90;99.90
41838;DHT22;27511;52.042;5.178;2023-07-13T09:33:56;21.90;99.90
41838;DHT22;27511;52.042;5.178;2023-07-13T09:36:24;22.10;99.90
41838;DHT22;27511;52.042;5.178;2023-07-13T09:39:33;22.00;99.90
41838;DHT22;27511;52.042;5.178;2023-07-13T09:41:41;22.20;99.90
41838;DHT22;27511;52.042;5.178;2023-07-13T09:44:12;22.00;99.90
41838;DHT22;27511;52.042;5.178;2023-07-13T09:46:39;22.10;99.90
41838;DHT22;27511;52.042;5.178;2023-07-13T09:49:06;22.20;99.90
41838;DHT22;27511;52.042;5.178;2023-07-13T09:51:34;22.20;99.90
41838;DHT22;27511;52.042;5.178;2023-07-13T09:53:59;21.90;99.90
41838;DHT22;27511;52.042;5.178;2023-07-13T09:56:28;21.80;99.90
41838;DHT22;27511;52.042;5.178;2023-07-13T09:58:55;21.90;99.90
41838;DHT22;27511;52.042;5.178;2023-07-13T10:01:34;21.90;99.90
41838;DHT22;27511;52.042;5.178;2023-07-13T10:03:59;21.90;99.90
41838;DHT22;27511;52.042;5.178;2023-07-13T10:06:25;22.00;99.90
41838;DHT22;27511;52.042;5.178;2023-07-13T10:08:55;22.10;99.90
41838;DHT22;27511;52.042;5.178;2023-07-13T10:11:22;22.20;99.90
41838;DHT22;27511;52.042;5.178;2023-07-13T10:13:59;22.10;99.90
41838;DHT22;27511;52.042;5.178;2023-07-13T10:16:25;22.00;99.90
41838;DHT22;27511;52.042;5.178;2023-07-13T10:18:53;22.00;99.90
41838;DHT22;27511;52.042;5.178;2023-07-13T10:21:22;21.80;99.90
41838;DHT22;27511;52.042;5.178;2023-07-13T10:23:55;22.00;99.90
41838;DHT22;27511;52.042;5.178;2023-07-13T10:26:29;22.00;99.90
41838;DHT22;27511;52.042;5.178;2023-07-13T10:28:57;22.00;99.90
41838;DHT22;27511;52.042;5.178;2023-07-13T10:31:24;22.00;99.90
41838;DHT22;27511;52.042;5.178;2023-07-13T10:33:50;21.90;99.90
41838;DHT22;27511;52.042;5.178;2023-07-13T10:38:54;22.00;99.90
41838;DHT22;27511;52.042;5.178;2023-07-13T10:41:21;22.00;99.90
41838;DHT22;27511;52.042;5.178;2023-07-13T10:43:49;22.20;99.90
41838;DHT22;27511;52.042;5.178;2023-07-13T10:46:17;22.30;99.90
41838;DHT22;27511;52.042;5.178;2023-07-13T10:48:43;22.30;99.90
41838;DHT22;27511;52.042;5.178;2023-07-13T10:51:10;22.40;99.90
41838;DHT22;27511;52.042;5.178;2023-07-13T10:53:36;22.10;99.90
41838;DHT22;27511;52.042;5.178;2023-07-13T10:56:03;22.10;99.90
41838;DHT22;27511;52.042;5.178;2023-07-13T10:58:35;22.10;99.90
41838;DHT22;27511;52.042;5.178;2023-07-13T11:03:37;22.00;99.90
41838;DHT22;27511;52.042;5.178;2023-07-13T11:06:11;22.00;99.90
41838;DHT22;27511;52.042;5.178;2023-07-13T11:11:54;22.30;99.90
41838;DHT22;27511;52.042;5.178;2023-07-13T11:14:01;22.30;99.90
41838;DHT22;27511;52.042;5.178;2023-07-13T11:16:34;22.40;99.90
41838;DHT22;27511;52.042;5.178;2023-07-13T11:21:29;22.20;99.90
41838;DHT22;27511;52.042;5.178;2023-07-13T11:24:02;22.40;99.90
41838;DHT22;27511;52.042;5.178;2023-07-13T11:31:41;22.50;99.90
41838;DHT22;27511;52.042;5.178;2023-07-13T11:34:21;22.60;99.90
41838;DHT22;27511;52.042;5.178;2023-07-13T11:36:49;22.70;99.90
41838;DHT22;27511;52.042;5.178;2023-07-13T11:39:17;22.70;99.90
41838;DHT22;27511;52.042;5.178;2023-07-13T11:41:53;22.90;99.90
41838;DHT22;27511;52.042;5.178;2023-07-13T11:44:22;22.80;99.90
41838;DHT22;27511;52.042;5.178;2023-07-13T11:46:49;23.00;99.90
41838;DHT22;27511;52.042;5.178;2023-07-13T11:49:20;23.20;99.90
41838;DHT22;27511;52.042;5.178;2023-07-13T11:51:45;23.20;99.90
41838;DHT22;27511;52.042;5.178;2023-07-13T11:56:54;23.10;99.90
41838;DHT22;27511;52.042;5.178;2023-07-13T11:59:20;23.30;99.90
41838;DHT22;27511;52.042;5.178;2023-07-13T12:01:47;23.30;99.90
41838;DHT22;27511;52.042;5.178;2023-07-13T12:04:27;23.40;99.90
41838;DHT22;27511;52.042;5.178;2023-07-13T12:07:07;23.20;99.90
41838;DHT22;27511;52.042;5.178;2023-07-13T12:09:34;23.10;99.90
41838;DHT22;27511;52.042;5.178;2023-07-13T12:12:02;23.20;99.90
41838;DHT22;27511;52.042;5.178;2023-07-13T12:14:27;23.20;99.90
41838;DHT22;27511;52.042;5.178;2023-07-13T12:16:53;23.40;99.90
41838;DHT22;27511;52.042;5.178;2023-07-13T12:19:26;23.50;99.90
41838;DHT22;27511;52.042;5.178;2023-07-13T12:21:53;23.30;99.90
41838;DHT22;27511;52.042;5.178;2023-07-13T12:24:20;23.30;99.90
41838;DHT22;27511;52.042;5.178;2023-07-13T12:27:01;23.40;99.90
41838;DHT22;27511;52.042;5.178;2023-07-13T12:29:27;23.50;99.90
41838;DHT22;27511;52.042;5.178;2023-07-13T12:31:53;23.60;99.90
41838;DHT22;27511;52.042;5.178;2023-07-13T12:34:21;23.70;99.90
41838;DHT22;27511;52.042;5.178;2023-07-13T12:41:49;23.90;99.90
41838;DHT22;27511;52.042;5.178;2023-07-13T12:44:16;23.90;99.90
41838;DHT22;27511;52.042;5.178;2023-07-13T12:49:47;23.80;99.90
41838;DHT22;27511;52.042;5.178;2023-07-13T12:52:14;24.10;99.90
41838;DHT22;27511;52.042;5.178;2023-07-13T12:54:39;24.00;99.90
41838;DHT22;27511;52.042;5.178;2023-07-13T12:57:05;23.60;99.90
41838;DHT22;27511;52.042;5.178;2023-07-13T12:59:34;23.50;99.90
41838;DHT22;27511;52.042;5.178;2023-07-13T13:02:02;23.60;99.90
41838;DHT22;27511;52.042;5.178;2023-07-13T13:04:28;23.80;99.90
41838;DHT22;27511;52.042;5.178;2023-07-13T13:07:03;24.00;99.90
41838;DHT22;27511;52.042;5.178;2023-07-13T13:09:29;24.00;99.90
41838;DHT22;27511;52.042;5.178;2023-07-13T13:11:54;24.00;99.90
41838;DHT22;27511;52.042;5.178;2023-07-13T13:14:20;24.20;99.90
41838;DHT22;27511;52.042;5.178;2023-07-13T13:16:47;24.50;99.90
41838;DHT22;27511;52.042;5.178;2023-07-13T13:21:42;24.60;99.90
41838;DHT22;27511;52.042;5.178;2023-07-13T13:24:15;24.70;99.90
41838;DHT22;27511;52.042;5.178;2023-07-13T13:26:41;24.90;99.90
41838;DHT22;27511;52.042;5.178;2023-07-13T13:29:14;24.90;99.90
41838;DHT22;27511;52.042;5.178;2023-07-13T13:31:40;24.60;99.90
41838;DHT22;27511;52.042;5.178;2023-07-13T13:34:13;24.60;99.90
41838;DHT22;27511;52.042;5.178;2023-07-13T13:36:39;24.80;99.90
41838;DHT22;27511;52.042;5.178;2023-07-13T13:39:10;24.80;99.90
41838;DHT22;27511;52.042;5.178;2023-07-13T13:41:40;24.90;99.90
41838;DHT22;27511;52.042;5.178;2023-07-13T13:44:08;24.90;99.90
41838;DHT22;27511;52.042;5.178;2023-07-13T13:46:33;25.00;99.90
41838;DHT22;27511;52.042;5.178;2023-07-13T13:48:59;24.90;99.90
41838;DHT22;27511;52.042;5.178;2023-07-13T13:51:24;24.80;99.90
41838;DHT22;27511;52.042;5.178;2023-07-13T13:53:50;24.40;99.90
41838;DHT22;27511;52.042;5.178;2023-07-13T13:56:17;24.60;99.90
41838;DHT22;27511;52.042;5.178;2023-07-13T13:58:43;24.60;99.90
41838;DHT22;27511;52.042;5.178;2023-07-13T14:01:13;24.50;99.90
41838;DHT22;27511;52.042;5.178;2023-07-13T14:03:39;24.60;99.90
41838;DHT22;27511;52.042;5.178;2023-07-13T14:06:05;24.90;99.90
41838;DHT22;27511;52.042;5.178;2023-07-13T14:08:30;24.90;99.90
41838;DHT22;27511;52.042;5.178;2023-07-13T14:10:56;25.00;99.90
41838;DHT22;27511;52.042;5.178;2023-07-13T14:13:25;25.30;99.90
41838;DHT22;27511;52.042;5.178;2023-07-13T14:15:52;25.50;99.90
41838;DHT22;27511;52.042;5.178;2023-07-13T14:18:17;25.60;99.90
41838;DHT22;27511;52.042;5.178;2023-07-13T14:20:43;26.00;99.90
41838;DHT22;27511;52.042;5.178;2023-07-13T14:23:09;26.00;99.90
41838;DHT22;27511;52.042;5.178;2023-07-13T14:25:35;26.00;99.90
41838;DHT22;27511;52.042;5.178;2023-07-13T14:28:04;26.20;99.90
41838;DHT22;27511;52.042;5.178;2023-07-13T14:30:36;26.20;99.90
41838;DHT22;27511;52.042;5.178;2023-07-13T14:33:04;26.10;99.90
41838;DHT22;27511;52.042;5.178;2023-07-13T14:35:29;26.40;99.90
41838;DHT22;27511;52.042;5.178;2023-07-13T14:37:55;26.00;99.90
41838;DHT22;27511;52.042;5.178;2023-07-13T14:40:24;26.10;99.90
41838;DHT22;27511;52.042;5.178;2023-07-13T14:42:51;26.10;99.90
41838;DHT22;27511;52.042;5.178;2023-07-13T14:45:19;26.10;99.90
41838;DHT22;27511;52.042;5.178;2023-07-13T14:47:45;25.90;99.90
41838;DHT22;27511;52.042;5.178;2023-07-13T14:50:30;25.80;99.90
41838;DHT22;27511;52.042;5.178;2023-07-13T14:52:56;25.70;99.90
41838;DHT22;27511;52.042;5.178;2023-07-13T14:55:21;25.90;99.90
41838;DHT22;27511;52.042;5.178;2023-07-13T14:57:47;26.00;99.90
41838;DHT22;27511;52.042;5.178;2023-07-13T15:00:14;26.10;99.90
41838;DHT22;27511;52.042;5.178;2023-07-13T15:02:40;26.30;99.90
41838;DHT22;27511;52.042;5.178;2023-07-13T15:05:17;26.30;99.90
41838;DHT22;27511;52.042;5.178;2023-07-13T15:07:43;26.30;99.90
41838;DHT22;27511;52.042;5.178;2023-07-13T15:10:13;26.30;99.90
41838;DHT22;27511;52.042;5.178;2023-07-13T15:12:39;26.10;99.90
41838;DHT22;27511;52.042;5.178;2023-07-13T15:15:05;26.30;99.90
41838;DHT22;27511;52.042;5.178;2023-07-13T15:17:32;26.20;99.90
41838;DHT22;27511;52.042;5.178;2023-07-13T15:20:02;26.40;99.90
41838;DHT22;27511;52.042;5.178;2023-07-13T15:22:31;26.40;99.90
41838;DHT22;27511;52.042;5.178;2023-07-13T15:24:56;26.60;99.90
41838;DHT22;27511;52.042;5.178;2023-07-13T15:27:22;26.40;99.90
41838;DHT22;27511;52.042;5.178;2023-07-13T15:29:47;26.40;99.90
41838;DHT22;27511;52.042;5.178;2023-07-13T15:32:13;26.50;99.90
41838;DHT22;27511;52.042;5.178;2023-07-13T15:34:39;26.60;99.90
41838;DHT22;27511;52.042;5.178;2023-07-13T15:37:13;26.90;99.90
41838;DHT22;27511;52.042;5.178;2023-07-13T15:39:40;27.50;99.90
41838;DHT22;27511;52.042;5.178;2023-07-13T15:42:07;28.20;99.90
41838;DHT22;27511;52.042;5.178;2023-07-13T15:44:33;28.20;99.90
41838;DHT22;27511;52.042;5.178;2023-07-13T15:46:58;28.20;99.90
41838;DHT22;27511;52.042;5.178;2023-07-13T15:49:25;28.00;99.90
41838;DHT22;27511;52.042;5.178;2023-07-13T15:51:51;27.70;99.90
41838;DHT22;27511;52.042;5.178;2023-07-13T15:54:18;28.20;99.90
41838;DHT22;27511;52.042;5.178;2023-07-13T15:56:45;28.90;99.90
41838;DHT22;27511;52.042;5.178;2023-07-13T15:59:13;29.60;99.90
41838;DHT22;27511;52.042;5.178;2023-07-13T16:01:39;29.80;99.90
41838;DHT22;27511;52.042;5.178;2023-07-13T16:04:07;30.30;99.90
41838;DHT22;27511;52.042;5.178;2023-07-13T16:06:33;30.60;99.90
41838;DHT22;27511;52.042;5.178;2023-07-13T16:09:00;30.40;99.90